Woodlands, New Zealand
Current Conditions -  °F | °C
As of 3:00 AM on Friday 31 Oct 2014 (Local Time) from NZCH Reporting Station
Clear Clear  
Wind Chill: 59°   Ceiling: Unl
Heat Index: 59°   Visibility: 6mi
Dew Point: 36°   Wind: 16mph
Humidity: 42%   Direction: 300°WNW
Pressure: 29.47"   Gusts: NA
Location:  46.37°S, 168.55°E
Report Text: NZCH 301500Z AUTO 30014KT 270V330 9999 NCD 15/02 Q0998 NOSIG
Loading
Personal Weather Stations






























Interactive Weather Map
Tropical Storm Tracking
New forecast layout! Learn more

10-Day Weather Forecast

Advertisements
Track Severe Weather on mobile